sensor_id;sensor_type;location;lat;lon;timestamp;P1;durP1;ratioP1;P2;durP2;ratioP2
20559;SDS011;10438;51.454;6.718;2023-03-01T00:02:16;12.17;;;5.97;;
20559;SDS011;10438;51.454;6.718;2023-03-01T00:04:42;11.43;;;6.27;;
20559;SDS011;10438;51.454;6.718;2023-03-01T00:07:07;12.90;;;6.50;;
20559;SDS011;10438;51.454;6.718;2023-03-01T00:09:33;11.77;;;5.53;;
20559;SDS011;10438;51.454;6.718;2023-03-01T00:11:58;20.60;;;6.50;;
20559;SDS011;10438;51.454;6.718;2023-03-01T00:14:24;12.10;;;6.10;;
20559;SDS011;10438;51.454;6.718;2023-03-01T00:16:49;13.43;;;6.43;;
20559;SDS011;10438;51.454;6.718;2023-03-01T00:19:16;11.50;;;5.93;;
20559;SDS011;10438;51.454;6.718;2023-03-01T00:21:43;12.00;;;6.17;;
20559;SDS011;10438;51.454;6.718;2023-03-01T00:24:09;11.03;;;5.60;;
20559;SDS011;10438;51.454;6.718;2023-03-01T00:26:35;12.17;;;5.83;;
20559;SDS011;10438;51.454;6.718;2023-03-01T00:29:01;10.43;;;5.63;;
20559;SDS011;10438;51.454;6.718;2023-03-01T00:31:27;11.40;;;5.80;;
20559;SDS011;10438;51.454;6.718;2023-03-01T00:33:55;13.40;;;5.97;;
20559;SDS011;10438;51.454;6.718;2023-03-01T00:36:22;13.00;;;5.53;;
20559;SDS011;10438;51.454;6.718;2023-03-01T00:38:49;11.33;;;6.13;;
20559;SDS011;10438;51.454;6.718;2023-03-01T00:41:16;13.00;;;6.13;;
20559;SDS011;10438;51.454;6.718;2023-03-01T00:43:42;12.37;;;6.23;;
20559;SDS011;10438;51.454;6.718;2023-03-01T00:46:10;11.73;;;6.20;;
20559;SDS011;10438;51.454;6.718;2023-03-01T00:48:38;11.57;;;6.47;;
20559;SDS011;10438;51.454;6.718;2023-03-01T00:51:07;11.90;;;6.30;;
20559;SDS011;10438;51.454;6.718;2023-03-01T00:53:35;12.00;;;6.30;;
20559;SDS011;10438;51.454;6.718;2023-03-01T00:56:01;13.40;;;6.27;;
20559;SDS011;10438;51.454;6.718;2023-03-01T00:58:27;11.97;;;5.57;;
20559;SDS011;10438;51.454;6.718;2023-03-01T01:00:53;11.47;;;5.90;;
20559;SDS011;10438;51.454;6.718;2023-03-01T01:03:19;12.87;;;6.40;;
20559;SDS011;10438;51.454;6.718;2023-03-01T01:05:45;11.37;;;5.90;;
20559;SDS011;10438;51.454;6.718;2023-03-01T01:08:11;11.50;;;5.87;;
20559;SDS011;10438;51.454;6.718;2023-03-01T01:10:36;12.20;;;6.57;;
20559;SDS011;10438;51.454;6.718;2023-03-01T01:13:02;12.33;;;6.17;;
20559;SDS011;10438;51.454;6.718;2023-03-01T01:15:28;13.33;;;6.53;;
20559;SDS011;10438;51.454;6.718;2023-03-01T01:17:57;12.97;;;6.90;;
20559;SDS011;10438;51.454;6.718;2023-03-01T01:20:23;12.93;;;6.97;;
20559;SDS011;10438;51.454;6.718;2023-03-01T01:22:48;14.20;;;6.97;;
20559;SDS011;10438;51.454;6.718;2023-03-01T01:25:14;12.80;;;6.90;;
20559;SDS011;10438;51.454;6.718;2023-03-01T01:27:39;20.03;;;8.30;;
20559;SDS011;10438;51.454;6.718;2023-03-01T01:30:05;17.53;;;7.90;;
20559;SDS011;10438;51.454;6.718;2023-03-01T01:32:31;15.27;;;7.60;;
20559;SDS011;10438;51.454;6.718;2023-03-01T01:34:56;16.40;;;7.87;;
20559;SDS011;10438;51.454;6.718;2023-03-01T01:37:22;16.17;;;6.80;;
20559;SDS011;10438;51.454;6.718;2023-03-01T01:39:47;16.63;;;6.40;;
20559;SDS011;10438;51.454;6.718;2023-03-01T01:42:17;15.43;;;6.60;;
20559;SDS011;10438;51.454;6.718;2023-03-01T01:44:46;12.43;;;6.30;;
20559;SDS011;10438;51.454;6.718;2023-03-01T01:47:14;14.10;;;6.67;;
20559;SDS011;10438;51.454;6.718;2023-03-01T01:52:20;15.00;;;6.60;;
20559;SDS011;10438;51.454;6.718;2023-03-01T01:54:51;14.23;;;6.60;;
20559;SDS011;10438;51.454;6.718;2023-03-01T01:57:25;12.23;;;6.60;;
20559;SDS011;10438;51.454;6.718;2023-03-01T01:59:55;14.23;;;7.07;;
20559;SDS011;10438;51.454;6.718;2023-03-01T02:02:24;12.77;;;6.80;;
20559;SDS011;10438;51.454;6.718;2023-03-01T02:04:52;11.63;;;6.77;;
20559;SDS011;10438;51.454;6.718;2023-03-01T02:07:28;12.50;;;7.10;;
20559;SDS011;10438;51.454;6.718;2023-03-01T02:09:55;11.07;;;6.47;;
20559;SDS011;10438;51.454;6.718;2023-03-01T02:12:22;10.23;;;6.20;;
20559;SDS011;10438;51.454;6.718;2023-03-01T02:14:49;11.57;;;6.33;;
20559;SDS011;10438;51.454;6.718;2023-03-01T02:17:15;12.47;;;6.77;;
20559;SDS011;10438;51.454;6.718;2023-03-01T02:19:46;10.50;;;6.30;;
20559;SDS011;10438;51.454;6.718;2023-03-01T02:22:32;15.13;;;6.97;;
20559;SDS011;10438;51.454;6.718;2023-03-01T02:28:01;13.37;;;6.53;;
20559;SDS011;10438;51.454;6.718;2023-03-01T02:30:29;10.90;;;6.23;;
20559;SDS011;10438;51.454;6.718;2023-03-01T02:32:56;14.33;;;6.73;;
20559;SDS011;10438;51.454;6.718;2023-03-01T02:35:27;13.57;;;6.60;;
20559;SDS011;10438;51.454;6.718;2023-03-01T02:37:59;14.20;;;7.13;;
20559;SDS011;10438;51.454;6.718;2023-03-01T02:40:27;11.67;;;6.60;;
20559;SDS011;10438;51.454;6.718;2023-03-01T02:42:55;14.40;;;7.13;;
20559;SDS011;10438;51.454;6.718;2023-03-01T02:45:23;13.67;;;7.37;;
20559;SDS011;10438;51.454;6.718;2023-03-01T02:47:50;11.83;;;6.70;;
20559;SDS011;10438;51.454;6.718;2023-03-01T02:50:22;15.87;;;7.27;;
20559;SDS011;10438;51.454;6.718;2023-03-01T02:55:34;12.13;;;7.23;;
20559;SDS011;10438;51.454;6.718;2023-03-01T02:57:59;14.77;;;7.47;;
20559;SDS011;10438;51.454;6.718;2023-03-01T03:00:46;13.57;;;7.10;;
20559;SDS011;10438;51.454;6.718;2023-03-01T03:03:14;15.40;;;7.37;;
20559;SDS011;10438;51.454;6.718;2023-03-01T03:05:41;13.40;;;7.37;;
20559;SDS011;10438;51.454;6.718;2023-03-01T03:08:07;16.50;;;7.77;;
20559;SDS011;10438;51.454;6.718;2023-03-01T03:10:34;17.70;;;8.13;;
20559;SDS011;10438;51.454;6.718;2023-03-01T03:13:02;16.90;;;8.23;;
20559;SDS011;10438;51.454;6.718;2023-03-01T03:15:30;14.70;;;8.00;;
20559;SDS011;10438;51.454;6.718;2023-03-01T03:17:57;19.17;;;8.70;;
20559;SDS011;10438;51.454;6.718;2023-03-01T03:20:24;22.70;;;8.87;;
20559;SDS011;10438;51.454;6.718;2023-03-01T03:22:52;18.40;;;9.33;;
20559;SDS011;10438;51.454;6.718;2023-03-01T03:25:20;23.93;;;9.87;;
20559;SDS011;10438;51.454;6.718;2023-03-01T03:27:47;22.40;;;9.13;;
20559;SDS011;10438;51.454;6.718;2023-03-01T03:30:15;27.03;;;10.07;;
20559;SDS011;10438;51.454;6.718;2023-03-01T03:32:43;20.43;;;8.60;;
20559;SDS011;10438;51.454;6.718;2023-03-01T03:35:15;20.47;;;9.10;;
20559;SDS011;10438;51.454;6.718;2023-03-01T03:37:41;15.57;;;8.23;;
20559;SDS011;10438;51.454;6.718;2023-03-01T03:40:25;17.30;;;8.13;;
20559;SDS011;10438;51.454;6.718;2023-03-01T03:42:51;17.60;;;8.03;;
20559;SDS011;10438;51.454;6.718;2023-03-01T03:45:17;17.27;;;8.10;;
20559;SDS011;10438;51.454;6.718;2023-03-01T03:47:43;17.80;;;8.87;;
20559;SDS011;10438;51.454;6.718;2023-03-01T03:50:13;14.23;;;7.90;;
20559;SDS011;10438;51.454;6.718;2023-03-01T03:52:39;16.50;;;8.30;;
20559;SDS011;10438;51.454;6.718;2023-03-01T03:55:06;14.83;;;8.03;;
20559;SDS011;10438;51.454;6.718;2023-03-01T03:57:38;19.17;;;8.10;;
20559;SDS011;10438;51.454;6.718;2023-03-01T04:00:05;13.17;;;7.07;;
20559;SDS011;10438;51.454;6.718;2023-03-01T04:02:44;14.70;;;7.40;;
20559;SDS011;10438;51.454;6.718;2023-03-01T04:05:12;15.80;;;7.83;;
20559;SDS011;10438;51.454;6.718;2023-03-01T04:07:39;15.57;;;7.87;;
20559;SDS011;10438;51.454;6.718;2023-03-01T04:10:06;17.37;;;8.27;;
20559;SDS011;10438;51.454;6.718;2023-03-01T04:12:33;15.70;;;8.00;;
20559;SDS011;10438;51.454;6.718;2023-03-01T04:15:00;14.27;;;7.47;;
20559;SDS011;10438;51.454;6.718;2023-03-01T04:17:26;15.33;;;7.73;;
20559;SDS011;10438;51.454;6.718;2023-03-01T04:19:51;15.43;;;7.93;;
20559;SDS011;10438;51.454;6.718;2023-03-01T04:22:17;15.67;;;7.53;;
20559;SDS011;10438;51.454;6.718;2023-03-01T04:24:43;16.03;;;7.93;;
20559;SDS011;10438;51.454;6.718;2023-03-01T04:27:09;16.10;;;7.90;;
20559;SDS011;10438;51.454;6.718;2023-03-01T04:29:35;14.57;;;8.27;;
20559;SDS011;10438;51.454;6.718;2023-03-01T04:32:01;12.60;;;7.00;;
20559;SDS011;10438;51.454;6.718;2023-03-01T04:34:27;13.10;;;7.30;;
20559;SDS011;10438;51.454;6.718;2023-03-01T04:36:54;13.57;;;7.33;;
20559;SDS011;10438;51.454;6.718;2023-03-01T04:39:19;17.70;;;7.83;;
20559;SDS011;10438;51.454;6.718;2023-03-01T04:41:45;22.03;;;7.53;;
20559;SDS011;10438;51.454;6.718;2023-03-01T04:44:10;14.33;;;7.00;;
20559;SDS011;10438;51.454;6.718;2023-03-01T04:46:36;17.20;;;7.33;;
20559;SDS011;10438;51.454;6.718;2023-03-01T04:49:02;12.63;;;7.00;;
20559;SDS011;10438;51.454;6.718;2023-03-01T04:51:28;18.40;;;7.17;;
20559;SDS011;10438;51.454;6.718;2023-03-01T04:53:54;14.07;;;7.77;;
20559;SDS011;10438;51.454;6.718;2023-03-01T04:56:20;13.77;;;6.73;;
20559;SDS011;10438;51.454;6.718;2023-03-01T04:58:48;12.83;;;6.93;;
20559;SDS011;10438;51.454;6.718;2023-03-01T05:01:15;13.43;;;7.53;;
20559;SDS011;10438;51.454;6.718;2023-03-01T05:03:43;13.17;;;7.67;;
20559;SDS011;10438;51.454;6.718;2023-03-01T05:06:09;15.53;;;7.13;;
20559;SDS011;10438;51.454;6.718;2023-03-01T05:08:36;16.47;;;7.10;;
20559;SDS011;10438;51.454;6.718;2023-03-01T05:11:05;15.03;;;7.13;;
20559;SDS011;10438;51.454;6.718;2023-03-01T05:13:33;15.00;;;7.33;;
20559;SDS011;10438;51.454;6.718;2023-03-01T05:16:01;15.03;;;7.37;;
20559;SDS011;10438;51.454;6.718;2023-03-01T05:18:31;12.87;;;7.10;;
20559;SDS011;10438;51.454;6.718;2023-03-01T05:21:11;15.83;;;7.73;;
20559;SDS011;10438;51.454;6.718;2023-03-01T05:23:38;14.07;;;6.80;;
20559;SDS011;10438;51.454;6.718;2023-03-01T05:26:04;12.83;;;6.97;;
20559;SDS011;10438;51.454;6.718;2023-03-01T05:28:31;13.57;;;7.60;;
20559;SDS011;10438;51.454;6.718;2023-03-01T05:30:57;15.90;;;7.13;;
20559;SDS011;10438;51.454;6.718;2023-03-01T05:33:23;15.27;;;6.90;;
20559;SDS011;10438;51.454;6.718;2023-03-01T05:35:50;15.97;;;7.47;;
20559;SDS011;10438;51.454;6.718;2023-03-01T05:38:17;14.07;;;7.03;;
20559;SDS011;10438;51.454;6.718;2023-03-01T05:40:44;12.50;;;6.80;;
20559;SDS011;10438;51.454;6.718;2023-03-01T05:43:11;15.33;;;7.03;;
20559;SDS011;10438;51.454;6.718;2023-03-01T05:45:38;15.10;;;7.20;;
20559;SDS011;10438;51.454;6.718;2023-03-01T05:48:05;12.90;;;7.53;;
20559;SDS011;10438;51.454;6.718;2023-03-01T05:50:34;14.80;;;6.77;;
20559;SDS011;10438;51.454;6.718;2023-03-01T05:53:02;14.33;;;7.37;;
20559;SDS011;10438;51.454;6.718;2023-03-01T05:55:31;12.17;;;6.67;;
20559;SDS011;10438;51.454;6.718;2023-03-01T05:57:58;12.37;;;6.73;;
20559;SDS011;10438;51.454;6.718;2023-03-01T06:00:24;16.40;;;7.43;;
20559;SDS011;10438;51.454;6.718;2023-03-01T06:02:50;19.03;;;7.43;;
20559;SDS011;10438;51.454;6.718;2023-03-01T06:05:17;16.43;;;7.60;;
20559;SDS011;10438;51.454;6.718;2023-03-01T06:07:42;26.50;;;11.00;;
20559;SDS011;10438;51.454;6.718;2023-03-01T06:10:09;24.33;;;9.03;;
20559;SDS011;10438;51.454;6.718;2023-03-01T06:12:36;19.33;;;7.67;;
20559;SDS011;10438;51.454;6.718;2023-03-01T06:15:03;18.13;;;8.20;;
20559;SDS011;10438;51.454;6.718;2023-03-01T06:17:31;22.77;;;10.43;;
20559;SDS011;10438;51.454;6.718;2023-03-01T06:20:02;20.60;;;8.10;;
20559;SDS011;10438;51.454;6.718;2023-03-01T06:22:32;17.47;;;8.63;;
20559;SDS011;10438;51.454;6.718;2023-03-01T06:24:58;17.30;;;7.60;;
20559;SDS011;10438;51.454;6.718;2023-03-01T06:27:23;18.23;;;8.30;;
20559;SDS011;10438;51.454;6.718;2023-03-01T06:29:49;19.73;;;8.90;;
20559;SDS011;10438;51.454;6.718;2023-03-01T06:32:15;18.47;;;8.63;;
20559;SDS011;10438;51.454;6.718;2023-03-01T06:34:40;19.43;;;8.00;;
20559;SDS011;10438;51.454;6.718;2023-03-01T06:37:06;17.70;;;8.17;;
20559;SDS011;10438;51.454;6.718;2023-03-01T06:39:32;16.53;;;8.47;;
20559;SDS011;10438;51.454;6.718;2023-03-01T06:41:58;19.10;;;9.93;;
20559;SDS011;10438;51.454;6.718;2023-03-01T06:44:24;26.53;;;10.40;;
20559;SDS011;10438;51.454;6.718;2023-03-01T06:46:50;18.63;;;8.67;;
20559;SDS011;10438;51.454;6.718;2023-03-01T06:49:15;15.87;;;8.83;;
20559;SDS011;10438;51.454;6.718;2023-03-01T06:51:42;17.97;;;8.90;;
20559;SDS011;10438;51.454;6.718;2023-03-01T06:54:08;20.90;;;9.37;;
20559;SDS011;10438;51.454;6.718;2023-03-01T06:56:33;22.17;;;9.50;;
20559;SDS011;10438;51.454;6.718;2023-03-01T06:58:59;18.17;;;8.67;;
20559;SDS011;10438;51.454;6.718;2023-03-01T07:01:25;17.47;;;8.50;;
20559;SDS011;10438;51.454;6.718;2023-03-01T07:03:50;20.30;;;8.93;;
20559;SDS011;10438;51.454;6.718;2023-03-01T07:06:16;29.77;;;9.20;;
20559;SDS011;10438;51.454;6.718;2023-03-01T07:08:42;21.10;;;9.03;;
20559;SDS011;10438;51.454;6.718;2023-03-01T07:11:08;20.90;;;9.23;;
20559;SDS011;10438;51.454;6.718;2023-03-01T07:13:33;21.83;;;9.20;;
20559;SDS011;10438;51.454;6.718;2023-03-01T07:15:59;23.60;;;9.97;;
20559;SDS011;10438;51.454;6.718;2023-03-01T07:18:25;22.57;;;10.17;;
20559;SDS011;10438;51.454;6.718;2023-03-01T07:20:51;26.87;;;10.87;;
20559;SDS011;10438;51.454;6.718;2023-03-01T07:23:16;23.43;;;9.97;;
20559;SDS011;10438;51.454;6.718;2023-03-01T07:25:42;27.27;;;11.07;;
20559;SDS011;10438;51.454;6.718;2023-03-01T07:28:07;29.07;;;11.93;;
20559;SDS011;10438;51.454;6.718;2023-03-01T07:30:33;26.77;;;11.13;;
20559;SDS011;10438;51.454;6.718;2023-03-01T07:32:59;23.80;;;10.23;;
20559;SDS011;10438;51.454;6.718;2023-03-01T07:35:25;23.73;;;10.77;;
20559;SDS011;10438;51.454;6.718;2023-03-01T07:37:51;21.47;;;9.13;;
20559;SDS011;10438;51.454;6.718;2023-03-01T07:40:17;22.50;;;9.40;;
20559;SDS011;10438;51.454;6.718;2023-03-01T07:42:43;17.97;;;9.30;;
20559;SDS011;10438;51.454;6.718;2023-03-01T07:45:09;21.20;;;9.33;;
20559;SDS011;10438;51.454;6.718;2023-03-01T07:47:35;22.93;;;9.90;;
20559;SDS011;10438;51.454;6.718;2023-03-01T07:50:01;19.83;;;8.93;;
20559;SDS011;10438;51.454;6.718;2023-03-01T07:52:27;18.00;;;8.77;;
20559;SDS011;10438;51.454;6.718;2023-03-01T07:54:53;19.43;;;8.70;;
20559;SDS011;10438;51.454;6.718;2023-03-01T07:57:18;19.57;;;8.67;;
20559;SDS011;10438;51.454;6.718;2023-03-01T07:59:44;26.60;;;9.73;;
20559;SDS011;10438;51.454;6.718;2023-03-01T08:02:10;27.13;;;9.30;;
20559;SDS011;10438;51.454;6.718;2023-03-01T08:04:36;18.33;;;8.87;;
20559;SDS011;10438;51.454;6.718;2023-03-01T08:07:04;19.83;;;8.73;;
20559;SDS011;10438;51.454;6.718;2023-03-01T08:09:30;19.87;;;9.00;;
20559;SDS011;10438;51.454;6.718;2023-03-01T08:11:56;24.70;;;10.33;;
20559;SDS011;10438;51.454;6.718;2023-03-01T08:14:24;20.43;;;8.93;;
20559;SDS011;10438;51.454;6.718;2023-03-01T08:16:50;22.13;;;9.03;;
20559;SDS011;10438;51.454;6.718;2023-03-01T08:19:15;20.97;;;9.30;;
20559;SDS011;10438;51.454;6.718;2023-03-01T08:21:41;17.57;;;7.93;;
20559;SDS011;10438;51.454;6.718;2023-03-01T08:24:07;22.90;;;7.77;;
20559;SDS011;10438;51.454;6.718;2023-03-01T08:26:35;18.67;;;8.53;;
20559;SDS011;10438;51.454;6.718;2023-03-01T08:29:01;20.97;;;8.80;;
20559;SDS011;10438;51.454;6.718;2023-03-01T08:31:28;19.77;;;8.70;;
20559;SDS011;10438;51.454;6.718;2023-03-01T08:33:57;26.33;;;10.33;;
20559;SDS011;10438;51.454;6.718;2023-03-01T08:36:25;24.70;;;8.90;;
20559;SDS011;10438;51.454;6.718;2023-03-01T08:38:55;18.57;;;7.73;;
20559;SDS011;10438;51.454;6.718;2023-03-01T08:41:21;18.90;;;8.10;;
20559;SDS011;10438;51.454;6.718;2023-03-01T08:43:47;17.50;;;7.60;;
20559;SDS011;10438;51.454;6.718;2023-03-01T08:46:13;17.20;;;7.77;;
20559;SDS011;10438;51.454;6.718;2023-03-01T08:48:38;20.80;;;8.07;;
20559;SDS011;10438;51.454;6.718;2023-03-01T08:51:15;19.70;;;7.60;;
20559;SDS011;10438;51.454;6.718;2023-03-01T10:55:35;13.17;;;5.77;;
20559;SDS011;10438;51.454;6.718;2023-03-01T11:00:54;10.13;;;5.83;;
20559;SDS011;10438;51.454;6.718;2023-03-01T11:03:31;10.07;;;6.00;;
20559;SDS011;10438;51.454;6.718;2023-03-01T11:08:41;14.27;;;6.30;;
20559;SDS011;10438;51.454;6.718;2023-03-01T11:13:34;13.13;;;5.90;;
20559;SDS011;10438;51.454;6.718;2023-03-01T11:16:05;16.30;;;6.50;;
20559;SDS011;10438;51.454;6.718;2023-03-01T11:18:34;10.67;;;5.83;;
20559;SDS011;10438;51.454;6.718;2023-03-01T11:21:00;9.50;;;5.83;;
20559;SDS011;10438;51.454;6.718;2023-03-01T11:23:27;9.80;;;5.47;;
20559;SDS011;10438;51.454;6.718;2023-03-01T11:25:56;11.57;;;5.70;;
20559;SDS011;10438;51.454;6.718;2023-03-01T11:28:25;13.13;;;5.63;;
20559;SDS011;10438;51.454;6.718;2023-03-01T11:30:59;11.30;;;5.70;;
20559;SDS011;10438;51.454;6.718;2023-03-01T11:41:50;9.27;;;4.97;;
20559;SDS011;10438;51.454;6.718;2023-03-01T11:44:27;9.50;;;5.20;;
20559;SDS011;10438;51.454;6.718;2023-03-01T11:47:07;9.80;;;5.40;;
20559;SDS011;10438;51.454;6.718;2023-03-01T11:53:01;11.43;;;5.57;;
20559;SDS011;10438;51.454;6.718;2023-03-01T11:58:27;12.53;;;5.70;;
20559;SDS011;10438;51.454;6.718;2023-03-01T12:07:09;9.97;;;5.03;;
20559;SDS011;10438;51.454;6.718;2023-03-01T12:10:16;13.60;;;5.37;;
20559;SDS011;10438;51.454;6.718;2023-03-01T12:16:20;13.97;;;5.93;;
20559;SDS011;10438;51.454;6.718;2023-03-01T12:19:08;10.47;;;5.47;;
20559;SDS011;10438;51.454;6.718;2023-03-01T12:24:52;11.57;;;5.17;;
20559;SDS011;10438;51.454;6.718;2023-03-01T12:27:29;10.43;;;5.13;;
20559;SDS011;10438;51.454;6.718;2023-03-01T12:30:22;10.87;;;5.17;;
20559;SDS011;10438;51.454;6.718;2023-03-01T12:35:54;11.97;;;5.60;;
20559;SDS011;10438;51.454;6.718;2023-03-01T12:38:46;11.03;;;5.63;;
20559;SDS011;10438;51.454;6.718;2023-03-01T12:45:02;10.60;;;5.40;;
20559;SDS011;10438;51.454;6.718;2023-03-01T12:49:58;11.30;;;5.23;;
20559;SDS011;10438;51.454;6.718;2023-03-01T12:52:32;12.07;;;5.40;;
20559;SDS011;10438;51.454;6.718;2023-03-01T12:55:01;11.47;;;5.50;;
20559;SDS011;10438;51.454;6.718;2023-03-01T12:57:33;9.17;;;5.23;;
20559;SDS011;10438;51.454;6.718;2023-03-01T13:02:55;12.33;;;5.63;;
20559;SDS011;10438;51.454;6.718;2023-03-01T13:08:49;10.93;;;5.90;;
20559;SDS011;10438;51.454;6.718;2023-03-01T13:11:31;10.27;;;5.27;;
20559;SDS011;10438;51.454;6.718;2023-03-01T13:14:34;12.03;;;5.27;;
20559;SDS011;10438;51.454;6.718;2023-03-01T13:16:44;13.53;;;5.57;;
20559;SDS011;10438;51.454;6.718;2023-03-01T13:19:20;9.93;;;5.43;;
20559;SDS011;10438;51.454;6.718;2023-03-01T13:21:49;10.63;;;5.10;;
20559;SDS011;10438;51.454;6.718;2023-03-01T13:29:44;8.80;;;5.37;;
20559;SDS011;10438;51.454;6.718;2023-03-01T13:32:20;9.80;;;4.93;;
20559;SDS011;10438;51.454;6.718;2023-03-01T13:34:54;9.63;;;5.07;;
20559;SDS011;10438;51.454;6.718;2023-03-01T13:51:01;11.63;;;5.20;;
20559;SDS011;10438;51.454;6.718;2023-03-01T13:53:30;10.33;;;6.00;;
20559;SDS011;10438;51.454;6.718;2023-03-01T13:56:00;15.23;;;5.70;;
20559;SDS011;10438;51.454;6.718;2023-03-01T13:58:32;13.67;;;7.10;;
20559;SDS011;10438;51.454;6.718;2023-03-01T14:03:52;11.47;;;5.97;;
20559;SDS011;10438;51.454;6.718;2023-03-01T14:06:25;10.27;;;5.43;;
20559;SDS011;10438;51.454;6.718;2023-03-01T14:09:04;10.23;;;5.80;;
20559;SDS011;10438;51.454;6.718;2023-03-01T14:14:10;8.43;;;5.10;;
20559;SDS011;10438;51.454;6.718;2023-03-01T14:19:38;10.43;;;5.80;;
20559;SDS011;10438;51.454;6.718;2023-03-01T14:24:49;11.20;;;5.73;;
20559;SDS011;10438;51.454;6.718;2023-03-01T14:27:25;12.27;;;5.40;;
20559;SDS011;10438;51.454;6.718;2023-03-01T14:29:54;10.40;;;5.90;;
20559;SDS011;10438;51.454;6.718;2023-03-01T14:32:26;10.80;;;5.73;;
20559;SDS011;10438;51.454;6.718;2023-03-01T14:34:54;10.07;;;6.03;;
20559;SDS011;10438;51.454;6.718;2023-03-01T14:37:23;11.93;;;6.37;;
20559;SDS011;10438;51.454;6.718;2023-03-01T14:39:52;10.10;;;6.27;;
20559;SDS011;10438;51.454;6.718;2023-03-01T14:42:18;13.83;;;6.47;;
20559;SDS011;10438;51.454;6.718;2023-03-01T14:44:47;18.27;;;7.83;;
20559;SDS011;10438;51.454;6.718;2023-03-01T14:47:21;14.53;;;7.40;;
20559;SDS011;10438;51.454;6.718;2023-03-01T14:50:40;14.60;;;6.47;;
20559;SDS011;10438;51.454;6.718;2023-03-01T14:52:57;12.43;;;6.50;;
20559;SDS011;10438;51.454;6.718;2023-03-01T14:55:26;11.33;;;6.87;;
20559;SDS011;10438;51.454;6.718;2023-03-01T14:57:57;13.57;;;6.67;;
20559;SDS011;10438;51.454;6.718;2023-03-01T15:00:27;12.73;;;6.60;;
20559;SDS011;10438;51.454;6.718;2023-03-01T15:02:56;15.10;;;6.50;;
20559;SDS011;10438;51.454;6.718;2023-03-01T15:05:30;14.53;;;7.33;;
20559;SDS011;10438;51.454;6.718;2023-03-01T15:07:58;18.77;;;8.10;;
20559;SDS011;10438;51.454;6.718;2023-03-01T15:10:26;17.63;;;7.93;;
20559;SDS011;10438;51.454;6.718;2023-03-01T15:12:54;15.37;;;6.90;;
20559;SDS011;10438;51.454;6.718;2023-03-01T15:17:56;10.07;;;5.83;;
20559;SDS011;10438;51.454;6.718;2023-03-01T15:20:24;12.83;;;6.20;;
20559;SDS011;10438;51.454;6.718;2023-03-01T15:22:53;11.33;;;6.77;;
20559;SDS011;10438;51.454;6.718;2023-03-01T15:25:20;10.97;;;6.27;;
20559;SDS011;10438;51.454;6.718;2023-03-01T15:27:49;11.67;;;6.77;;
20559;SDS011;10438;51.454;6.718;2023-03-01T15:30:17;11.27;;;6.67;;
20559;SDS011;10438;51.454;6.718;2023-03-01T15:32:48;14.20;;;6.73;;
20559;SDS011;10438;51.454;6.718;2023-03-01T15:35:45;11.07;;;6.80;;
20559;SDS011;10438;51.454;6.718;2023-03-01T15:38:25;11.50;;;6.40;;
20559;SDS011;10438;51.454;6.718;2023-03-01T15:40:51;12.80;;;6.33;;
20559;SDS011;10438;51.454;6.718;2023-03-01T15:43:36;11.57;;;5.90;;
20559;SDS011;10438;51.454;6.718;2023-03-01T15:46:02;12.83;;;6.50;;
20559;SDS011;10438;51.454;6.718;2023-03-01T15:48:29;12.73;;;6.10;;
20559;SDS011;10438;51.454;6.718;2023-03-01T15:50:55;12.40;;;6.40;;
20559;SDS011;10438;51.454;6.718;2023-03-01T15:53:23;13.53;;;6.60;;
20559;SDS011;10438;51.454;6.718;2023-03-01T15:55:49;19.87;;;6.00;;
20559;SDS011;10438;51.454;6.718;2023-03-01T15:58:16;11.60;;;5.60;;
20559;SDS011;10438;51.454;6.718;2023-03-01T16:00:45;12.23;;;5.63;;
20559;SDS011;10438;51.454;6.718;2023-03-01T16:03:13;12.33;;;6.03;;
20559;SDS011;10438;51.454;6.718;2023-03-01T16:05:46;11.50;;;5.90;;
20559;SDS011;10438;51.454;6.718;2023-03-01T16:08:13;10.87;;;5.60;;
20559;SDS011;10438;51.454;6.718;2023-03-01T16:10:39;10.20;;;5.53;;
20559;SDS011;10438;51.454;6.718;2023-03-01T16:13:06;11.20;;;5.40;;
20559;SDS011;10438;51.454;6.718;2023-03-01T16:15:33;11.87;;;5.97;;
20559;SDS011;10438;51.454;6.718;2023-03-01T16:18:02;11.40;;;5.73;;
20559;SDS011;10438;51.454;6.718;2023-03-01T16:20:30;14.93;;;6.33;;
20559;SDS011;10438;51.454;6.718;2023-03-01T16:23:03;16.53;;;5.67;;
20559;SDS011;10438;51.454;6.718;2023-03-01T16:25:33;14.67;;;5.97;;
20559;SDS011;10438;51.454;6.718;2023-03-01T16:27:59;14.00;;;6.13;;
20559;SDS011;10438;51.454;6.718;2023-03-01T16:30:29;15.60;;;6.67;;
20559;SDS011;10438;51.454;6.718;2023-03-01T16:32:55;11.43;;;5.90;;
20559;SDS011;10438;51.454;6.718;2023-03-01T16:35:21;14.63;;;6.33;;
20559;SDS011;10438;51.454;6.718;2023-03-01T16:37:47;14.13;;;6.37;;
20559;SDS011;10438;51.454;6.718;2023-03-01T16:40:17;14.30;;;6.47;;
20559;SDS011;10438;51.454;6.718;2023-03-01T16:42:45;12.93;;;6.50;;
20559;SDS011;10438;51.454;6.718;2023-03-01T16:45:12;11.13;;;6.57;;
20559;SDS011;10438;51.454;6.718;2023-03-01T16:47:37;14.20;;;6.97;;
20559;SDS011;10438;51.454;6.718;2023-03-01T16:50:03;14.20;;;6.97;;
20559;SDS011;10438;51.454;6.718;2023-03-01T16:52:29;13.53;;;7.17;;
20559;SDS011;10438;51.454;6.718;2023-03-01T16:54:54;11.37;;;6.23;;
20559;SDS011;10438;51.454;6.718;2023-03-01T16:57:20;10.77;;;6.13;;
20559;SDS011;10438;51.454;6.718;2023-03-01T16:59:45;11.53;;;6.40;;
20559;SDS011;10438;51.454;6.718;2023-03-01T17:02:11;13.53;;;5.50;;
20559;SDS011;10438;51.454;6.718;2023-03-01T17:04:39;13.80;;;6.70;;
20559;SDS011;10438;51.454;6.718;2023-03-01T17:07:05;14.00;;;6.03;;
20559;SDS011;10438;51.454;6.718;2023-03-01T17:09:34;10.80;;;6.07;;
20559;SDS011;10438;51.454;6.718;2023-03-01T17:12:05;15.33;;;5.77;;
20559;SDS011;10438;51.454;6.718;2023-03-01T17:14:30;13.00;;;6.20;;
20559;SDS011;10438;51.454;6.718;2023-03-01T17:16:56;12.23;;;6.03;;
20559;SDS011;10438;51.454;6.718;2023-03-01T17:19:22;13.63;;;5.57;;
20559;SDS011;10438;51.454;6.718;2023-03-01T17:21:48;12.03;;;6.07;;
20559;SDS011;10438;51.454;6.718;2023-03-01T17:24:13;11.37;;;5.20;;
20559;SDS011;10438;51.454;6.718;2023-03-01T17:26:39;13.30;;;6.33;;
20559;SDS011;10438;51.454;6.718;2023-03-01T17:29:04;11.83;;;5.93;;
20559;SDS011;10438;51.454;6.718;2023-03-01T17:31:31;13.40;;;6.20;;
20559;SDS011;10438;51.454;6.718;2023-03-01T17:33:57;13.23;;;6.00;;
20559;SDS011;10438;51.454;6.718;2023-03-01T17:36:23;11.47;;;6.00;;
20559;SDS011;10438;51.454;6.718;2023-03-01T17:38:49;12.90;;;5.53;;
20559;SDS011;10438;51.454;6.718;2023-03-01T17:41:16;16.70;;;5.97;;
20559;SDS011;10438;51.454;6.718;2023-03-01T17:43:43;16.77;;;6.97;;
20559;SDS011;10438;51.454;6.718;2023-03-01T17:46:09;11.30;;;5.97;;
20559;SDS011;10438;51.454;6.718;2023-03-01T17:48:35;12.10;;;5.80;;
20559;SDS011;10438;51.454;6.718;2023-03-01T17:51:04;22.10;;;6.60;;
20559;SDS011;10438;51.454;6.718;2023-03-01T17:53:35;15.40;;;7.47;;
20559;SDS011;10438;51.454;6.718;2023-03-01T17:56:02;15.73;;;6.43;;
20559;SDS011;10438;51.454;6.718;2023-03-01T17:58:29;12.97;;;5.70;;
20559;SDS011;10438;51.454;6.718;2023-03-01T18:00:55;11.60;;;5.83;;
20559;SDS011;10438;51.454;6.718;2023-03-01T18:03:20;11.37;;;5.43;;
20559;SDS011;10438;51.454;6.718;2023-03-01T18:05:46;10.33;;;5.37;;
20559;SDS011;10438;51.454;6.718;2023-03-01T18:08:12;10.00;;;5.57;;
20559;SDS011;10438;51.454;6.718;2023-03-01T18:10:38;10.40;;;5.90;;
20559;SDS011;10438;51.454;6.718;2023-03-01T18:13:04;12.07;;;5.50;;
20559;SDS011;10438;51.454;6.718;2023-03-01T18:15:31;12.67;;;6.03;;